Alinda, Pennsylvania
Current Conditions -  °F | °C
As of 10:56 AM on Monday 24 Nov 2014 (Local Time) from KCXY Reporting Station
Clear Clear  
Wind Chill: 68°   Ceiling: Unl
Heat Index: 68°   Visibility: 10mi
Dew Point: 56°   Wind: 21mph
Humidity: 65%   Direction: 190°S
Pressure: 29.6"   Gusts: 30mph
Location:  40.3086°N, 77.3363°W
Report Text: KCXY 241556Z 19018G26KT 10SM CLR 20/13 A2960 RMK AO2 PK WND 18027/1507 SLP025 T02000133
Loading
Personal Weather Stations






























Interactive Weather Map New forecast layout! Learn more

10-Day Weather Forecast

Advertisements
Track Severe Weather on mobile